Hauptseite
METAR-TAF:

Flughäfen :

Newquay Cornwall, England

Newquay Cornwall Airport

Breite: 50-26N, Länge: 005-00W, Höhe: 119 m

Beobachtung

Neuester Wetterbericht von vor 20 Minuten, um 06:20 UTC
Wind 7 kt aus West/Südwest
Temperatur 13°C
Luftfeuchtigkeit 100%
Luftdruck 1009 hPa
Sichtweite 10 km oder mehr
Leicht bewölkt in der Höhe von 2000 ft
Aufgelockert bewölkt in der Höhe von 4200 ft

METAR: EGHQ 300620Z 24007KT 9999 FEW020 SCT042 13/13 Q1009

Zeit: 07:40 (06:40 UTC)

Prognose

Neuester Wetterbericht von vor 9 Minuten, um 06:31 UTC
Gültige Prognose vom 30 um 06 UTC bis 30 um 15 UTC
Wind 12 kt aus West/Südwest
Sichtweite 10 km oder mehr
Leicht bewölkt in der Höhe von 2000 ft

TAF: EGHQ 300631Z 3006/3015 24012KT 9999 FEW020

METAR-TAF

Wetterbeobachtungen und Prognosen von mehr als 4000 Flughäfen (METAR und TAF Bericht).

Die verfügbaren Stationen werden durch gelbe und rote Markierungen auf der Karte dargestellt.

Führen Sie die Maus auf sie, um den Namen der Station zu sehen.

Darauf klicken, um die Beobachtung von Wetterbeobachtungen und Prognosen zu sehen.

Um die Karte zu ändern : klicken Sie auf den grünen Tasten mit einem schwarzen Kreuz Zum Vergrößern, auf den grünen Button mit einem Gedankenstrich zu verkleinern, oder auf die grünen Pfeile für benachbarte Karten.


METAR-TAF: